sensor_id;sensor_type;location;lat;lon;timestamp;P1;durP1;ratioP1;P2;durP2;ratioP2
42282;SDS011;28237;47.954;21.730;2023-12-22T00:00:26;11.63;;;6.30;;
42282;SDS011;28237;47.954;21.730;2023-12-22T00:02:51;9.50;;;6.53;;
42282;SDS011;28237;47.954;21.730;2023-12-22T00:05:16;11.07;;;6.30;;
42282;SDS011;28237;47.954;21.730;2023-12-22T00:07:42;9.20;;;6.47;;
42282;SDS011;28237;47.954;21.730;2023-12-22T00:10:07;8.25;;;5.93;;
42282;SDS011;28237;47.954;21.730;2023-12-22T00:12:34;10.18;;;6.18;;
42282;SDS011;28237;47.954;21.730;2023-12-22T00:14:59;11.88;;;6.45;;
42282;SDS011;28237;47.954;21.730;2023-12-22T00:17:24;12.20;;;7.20;;
42282;SDS011;28237;47.954;21.730;2023-12-22T00:19:50;9.48;;;6.85;;
42282;SDS011;28237;47.954;21.730;2023-12-22T00:22:15;11.90;;;7.03;;
42282;SDS011;28237;47.954;21.730;2023-12-22T00:24:40;7.10;;;5.20;;
42282;SDS011;28237;47.954;21.730;2023-12-22T00:27:05;13.65;;;6.88;;
42282;SDS011;28237;47.954;21.730;2023-12-22T00:29:31;8.82;;;4.97;;
42282;SDS011;28237;47.954;21.730;2023-12-22T00:31:57;11.25;;;6.45;;
42282;SDS011;28237;47.954;21.730;2023-12-22T00:34:22;9.75;;;6.35;;
42282;SDS011;28237;47.954;21.730;2023-12-22T00:36:48;8.15;;;5.85;;
42282;SDS011;28237;47.954;21.730;2023-12-22T00:39:13;7.90;;;6.53;;
42282;SDS011;28237;47.954;21.730;2023-12-22T00:41:39;9.18;;;6.15;;
42282;SDS011;28237;47.954;21.730;2023-12-22T00:44:04;13.65;;;6.72;;
42282;SDS011;28237;47.954;21.730;2023-12-22T00:46:29;11.15;;;6.43;;
42282;SDS011;28237;47.954;21.730;2023-12-22T00:48:54;13.55;;;6.70;;
42282;SDS011;28237;47.954;21.730;2023-12-22T00:51:20;8.95;;;6.55;;
42282;SDS011;28237;47.954;21.730;2023-12-22T00:53:45;11.48;;;6.60;;
42282;SDS011;28237;47.954;21.730;2023-12-22T00:56:10;9.23;;;6.30;;
42282;SDS011;28237;47.954;21.730;2023-12-22T00:58:38;10.70;;;7.13;;
42282;SDS011;28237;47.954;21.730;2023-12-22T01:01:03;7.68;;;5.57;;
42282;SDS011;28237;47.954;21.730;2023-12-22T01:03:28;8.48;;;7.00;;
42282;SDS011;28237;47.954;21.730;2023-12-22T01:05:54;14.10;;;6.23;;
42282;SDS011;28237;47.954;21.730;2023-12-22T01:08:19;8.67;;;6.57;;
42282;SDS011;28237;47.954;21.730;2023-12-22T01:10:45;10.98;;;5.88;;
42282;SDS011;28237;47.954;21.730;2023-12-22T01:13:11;8.55;;;5.35;;
42282;SDS011;28237;47.954;21.730;2023-12-22T01:15:36;10.07;;;6.22;;
42282;SDS011;28237;47.954;21.730;2023-12-22T01:18:01;8.50;;;5.70;;
42282;SDS011;28237;47.954;21.730;2023-12-22T01:20:26;8.10;;;5.72;;
42282;SDS011;28237;47.954;21.730;2023-12-22T01:22:52;8.30;;;5.32;;
42282;SDS011;28237;47.954;21.730;2023-12-22T01:25:17;8.63;;;6.05;;
42282;SDS011;28237;47.954;21.730;2023-12-22T01:27:42;12.52;;;6.97;;
42282;SDS011;28237;47.954;21.730;2023-12-22T01:30:08;9.83;;;6.63;;
42282;SDS011;28237;47.954;21.730;2023-12-22T01:32:33;10.02;;;6.28;;
42282;SDS011;28237;47.954;21.730;2023-12-22T01:35:01;9.68;;;6.55;;
42282;SDS011;28237;47.954;21.730;2023-12-22T01:37:31;9.23;;;5.45;;
42282;SDS011;28237;47.954;21.730;2023-12-22T01:39:57;13.35;;;6.47;;
42282;SDS011;28237;47.954;21.730;2023-12-22T01:42:23;9.30;;;5.93;;
42282;SDS011;28237;47.954;21.730;2023-12-22T01:44:48;8.93;;;5.75;;
42282;SDS011;28237;47.954;21.730;2023-12-22T01:47:14;13.13;;;6.70;;
42282;SDS011;28237;47.954;21.730;2023-12-22T01:49:39;10.57;;;5.95;;
42282;SDS011;28237;47.954;21.730;2023-12-22T01:52:05;8.73;;;6.00;;
42282;SDS011;28237;47.954;21.730;2023-12-22T01:54:30;9.80;;;6.43;;
42282;SDS011;28237;47.954;21.730;2023-12-22T01:56:55;13.52;;;7.43;;
42282;SDS011;28237;47.954;21.730;2023-12-22T01:59:21;11.73;;;6.90;;
42282;SDS011;28237;47.954;21.730;2023-12-22T02:01:46;9.70;;;6.45;;
42282;SDS011;28237;47.954;21.730;2023-12-22T02:04:12;9.45;;;6.15;;
42282;SDS011;28237;47.954;21.730;2023-12-22T02:06:39;8.75;;;5.60;;
42282;SDS011;28237;47.954;21.730;2023-12-22T02:09:04;9.10;;;6.43;;
42282;SDS011;28237;47.954;21.730;2023-12-22T02:11:29;8.27;;;5.30;;
42282;SDS011;28237;47.954;21.730;2023-12-22T02:13:54;11.10;;;7.18;;
42282;SDS011;28237;47.954;21.730;2023-12-22T02:16:31;11.02;;;6.40;;
42282;SDS011;28237;47.954;21.730;2023-12-22T02:18:57;7.05;;;5.32;;
42282;SDS011;28237;47.954;21.730;2023-12-22T02:21:24;10.70;;;6.25;;
42282;SDS011;28237;47.954;21.730;2023-12-22T02:23:49;11.35;;;5.45;;
42282;SDS011;28237;47.954;21.730;2023-12-22T02:26:17;8.20;;;5.78;;
42282;SDS011;28237;47.954;21.730;2023-12-22T02:28:45;8.93;;;6.30;;
42282;SDS011;28237;47.954;21.730;2023-12-22T02:31:22;9.02;;;5.30;;
42282;SDS011;28237;47.954;21.730;2023-12-22T02:33:50;9.55;;;5.97;;
42282;SDS011;28237;47.954;21.730;2023-12-22T02:36:18;10.70;;;5.65;;
42282;SDS011;28237;47.954;21.730;2023-12-22T02:38:45;10.38;;;5.43;;
42282;SDS011;28237;47.954;21.730;2023-12-22T02:41:11;9.07;;;5.30;;
42282;SDS011;28237;47.954;21.730;2023-12-22T02:43:36;11.13;;;6.10;;
42282;SDS011;28237;47.954;21.730;2023-12-22T02:46:02;9.85;;;5.40;;
42282;SDS011;28237;47.954;21.730;2023-12-22T02:48:27;9.57;;;5.80;;
42282;SDS011;28237;47.954;21.730;2023-12-22T02:50:53;7.35;;;5.80;;
42282;SDS011;28237;47.954;21.730;2023-12-22T02:53:18;10.82;;;5.70;;
42282;SDS011;28237;47.954;21.730;2023-12-22T02:55:43;9.27;;;5.97;;
42282;SDS011;28237;47.954;21.730;2023-12-22T02:58:09;9.65;;;6.68;;
42282;SDS011;28237;47.954;21.730;2023-12-22T03:00:34;10.07;;;5.90;;
42282;SDS011;28237;47.954;21.730;2023-12-22T03:02:59;10.63;;;6.13;;
42282;SDS011;28237;47.954;21.730;2023-12-22T03:05:25;11.97;;;6.47;;
42282;SDS011;28237;47.954;21.730;2023-12-22T03:07:50;10.10;;;6.10;;
42282;SDS011;28237;47.954;21.730;2023-12-22T03:10:15;11.15;;;5.90;;
42282;SDS011;28237;47.954;21.730;2023-12-22T03:12:40;12.47;;;7.77;;
42282;SDS011;28237;47.954;21.730;2023-12-22T03:15:06;10.70;;;6.47;;
42282;SDS011;28237;47.954;21.730;2023-12-22T03:17:31;11.05;;;6.07;;
42282;SDS011;28237;47.954;21.730;2023-12-22T03:19:57;12.40;;;6.88;;
42282;SDS011;28237;47.954;21.730;2023-12-22T03:22:22;11.02;;;5.43;;
42282;SDS011;28237;47.954;21.730;2023-12-22T03:24:47;10.20;;;6.63;;
42282;SDS011;28237;47.954;21.730;2023-12-22T03:27:12;10.53;;;6.17;;
42282;SDS011;28237;47.954;21.730;2023-12-22T03:29:41;10.23;;;6.43;;
42282;SDS011;28237;47.954;21.730;2023-12-22T03:32:06;8.60;;;6.00;;
42282;SDS011;28237;47.954;21.730;2023-12-22T03:34:32;11.43;;;7.27;;
42282;SDS011;28237;47.954;21.730;2023-12-22T03:36:57;10.07;;;6.47;;
42282;SDS011;28237;47.954;21.730;2023-12-22T03:39:22;8.65;;;5.82;;
42282;SDS011;28237;47.954;21.730;2023-12-22T03:41:47;9.90;;;6.47;;
42282;SDS011;28237;47.954;21.730;2023-12-22T03:44:13;10.20;;;7.13;;
42282;SDS011;28237;47.954;21.730;2023-12-22T03:46:38;9.20;;;5.65;;
42282;SDS011;28237;47.954;21.730;2023-12-22T03:49:03;10.15;;;6.68;;
42282;SDS011;28237;47.954;21.730;2023-12-22T03:51:29;10.50;;;6.47;;
42282;SDS011;28237;47.954;21.730;2023-12-22T03:53:54;10.87;;;6.10;;
42282;SDS011;28237;47.954;21.730;2023-12-22T03:56:19;12.98;;;7.32;;
42282;SDS011;28237;47.954;21.730;2023-12-22T03:58:44;10.02;;;6.85;;
42282;SDS011;28237;47.954;21.730;2023-12-22T04:01:13;9.20;;;5.90;;
42282;SDS011;28237;47.954;21.730;2023-12-22T04:03:38;9.43;;;5.85;;
42282;SDS011;28237;47.954;21.730;2023-12-22T04:06:04;10.05;;;6.35;;
42282;SDS011;28237;47.954;21.730;2023-12-22T04:08:29;9.02;;;5.88;;
42282;SDS011;28237;47.954;21.730;2023-12-22T04:10:54;8.93;;;5.97;;
42282;SDS011;28237;47.954;21.730;2023-12-22T04:13:20;9.15;;;5.25;;
42282;SDS011;28237;47.954;21.730;2023-12-22T04:15:45;8.23;;;5.60;;
42282;SDS011;28237;47.954;21.730;2023-12-22T04:18:10;7.95;;;5.25;;
42282;SDS011;28237;47.954;21.730;2023-12-22T04:20:35;7.72;;;5.10;;
42282;SDS011;28237;47.954;21.730;2023-12-22T04:23:01;8.30;;;5.28;;
42282;SDS011;28237;47.954;21.730;2023-12-22T04:25:26;10.02;;;5.13;;
42282;SDS011;28237;47.954;21.730;2023-12-22T04:27:51;6.97;;;5.00;;
42282;SDS011;28237;47.954;21.730;2023-12-22T04:30:17;5.38;;;4.20;;
42282;SDS011;28237;47.954;21.730;2023-12-22T04:32:42;7.50;;;4.80;;
42282;SDS011;28237;47.954;21.730;2023-12-22T04:35:08;6.13;;;4.72;;
42282;SDS011;28237;47.954;21.730;2023-12-22T04:37:33;7.32;;;4.55;;
42282;SDS011;28237;47.954;21.730;2023-12-22T04:39:59;5.30;;;4.07;;
42282;SDS011;28237;47.954;21.730;2023-12-22T04:42:24;6.85;;;4.63;;
42282;SDS011;28237;47.954;21.730;2023-12-22T04:44:50;8.00;;;3.85;;
42282;SDS011;28237;47.954;21.730;2023-12-22T04:47:16;6.97;;;4.07;;
42282;SDS011;28237;47.954;21.730;2023-12-22T04:49:41;4.85;;;3.47;;
42282;SDS011;28237;47.954;21.730;2023-12-22T04:52:06;6.20;;;3.25;;
42282;SDS011;28237;47.954;21.730;2023-12-22T04:54:31;5.10;;;3.90;;
42282;SDS011;28237;47.954;21.730;2023-12-22T04:56:57;5.75;;;3.50;;
42282;SDS011;28237;47.954;21.730;2023-12-22T04:59:22;6.40;;;3.50;;
42282;SDS011;28237;47.954;21.730;2023-12-22T05:01:47;5.28;;;3.60;;
42282;SDS011;28237;47.954;21.730;2023-12-22T05:04:13;6.32;;;4.03;;
42282;SDS011;28237;47.954;21.730;2023-12-22T05:06:38;5.28;;;3.25;;
42282;SDS011;28237;47.954;21.730;2023-12-22T05:09:03;5.65;;;3.60;;
42282;SDS011;28237;47.954;21.730;2023-12-22T05:11:29;5.00;;;2.97;;
42282;SDS011;28237;47.954;21.730;2023-12-22T05:13:54;6.47;;;3.55;;
42282;SDS011;28237;47.954;21.730;2023-12-22T05:16:19;4.13;;;3.47;;
42282;SDS011;28237;47.954;21.730;2023-12-22T05:18:44;7.03;;;3.22;;
42282;SDS011;28237;47.954;21.730;2023-12-22T05:21:11;3.08;;;2.60;;
42282;SDS011;28237;47.954;21.730;2023-12-22T05:23:37;4.97;;;3.47;;
42282;SDS011;28237;47.954;21.730;2023-12-22T05:26:02;4.10;;;3.05;;
42282;SDS011;28237;47.954;21.730;2023-12-22T05:28:28;5.55;;;3.33;;
42282;SDS011;28237;47.954;21.730;2023-12-22T05:30:53;3.78;;;2.25;;
42282;SDS011;28237;47.954;21.730;2023-12-22T05:33:19;4.93;;;2.45;;
42282;SDS011;28237;47.954;21.730;2023-12-22T05:35:44;3.97;;;2.30;;
42282;SDS011;28237;47.954;21.730;2023-12-22T05:38:09;2.73;;;1.87;;
42282;SDS011;28237;47.954;21.730;2023-12-22T05:40:35;3.35;;;2.75;;
42282;SDS011;28237;47.954;21.730;2023-12-22T05:43:00;4.00;;;2.33;;
42282;SDS011;28237;47.954;21.730;2023-12-22T05:45:25;1.83;;;1.60;;
42282;SDS011;28237;47.954;21.730;2023-12-22T05:47:51;2.50;;;2.03;;
42282;SDS011;28237;47.954;21.730;2023-12-22T05:50:16;4.15;;;2.28;;
42282;SDS011;28237;47.954;21.730;2023-12-22T05:52:41;1.83;;;1.17;;
42282;SDS011;28237;47.954;21.730;2023-12-22T05:55:07;2.80;;;1.48;;
42282;SDS011;28237;47.954;21.730;2023-12-22T05:57:33;1.98;;;1.85;;
42282;SDS011;28237;47.954;21.730;2023-12-22T05:59:58;9.38;;;3.80;;
42282;SDS011;28237;47.954;21.730;2023-12-22T06:02:25;5.47;;;2.63;;
42282;SDS011;28237;47.954;21.730;2023-12-22T06:04:50;4.88;;;1.35;;
42282;SDS011;28237;47.954;21.730;2023-12-22T06:07:15;2.10;;;0.98;;
42282;SDS011;28237;47.954;21.730;2023-12-22T06:09:40;3.37;;;0.40;;
42282;SDS011;28237;47.954;21.730;2023-12-22T06:12:06;1.03;;;0.73;;
42282;SDS011;28237;47.954;21.730;2023-12-22T06:14:31;1.75;;;0.63;;
42282;SDS011;28237;47.954;21.730;2023-12-22T06:16:57;0.85;;;0.30;;
42282;SDS011;28237;47.954;21.730;2023-12-22T06:19:23;1.60;;;0.68;;
42282;SDS011;28237;47.954;21.730;2023-12-22T06:21:50;1.70;;;0.95;;
42282;SDS011;28237;47.954;21.730;2023-12-22T06:24:15;0.90;;;0.40;;
42282;SDS011;28237;47.954;21.730;2023-12-22T06:26:41;0.50;;;0.38;;
42282;SDS011;28237;47.954;21.730;2023-12-22T06:29:06;1.85;;;0.52;;
42282;SDS011;28237;47.954;21.730;2023-12-22T06:31:32;1.10;;;0.30;;
42282;SDS011;28237;47.954;21.730;2023-12-22T06:33:57;2.20;;;0.43;;
42282;SDS011;28237;47.954;21.730;2023-12-22T06:36:27;1.17;;;0.93;;
42282;SDS011;28237;47.954;21.730;2023-12-22T06:38:52;0.50;;;0.50;;
42282;SDS011;28237;47.954;21.730;2023-12-22T06:41:24;1.05;;;0.38;;
42282;SDS011;28237;47.954;21.730;2023-12-22T06:43:50;0.90;;;0.30;;
42282;SDS011;28237;47.954;21.730;2023-12-22T06:46:19;0.40;;;0.30;;
42282;SDS011;28237;47.954;21.730;2023-12-22T06:48:44;0.75;;;0.30;;
42282;SDS011;28237;47.954;21.730;2023-12-22T06:51:23;1.08;;;0.40;;
42282;SDS011;28237;47.954;21.730;2023-12-22T06:53:49;0.60;;;0.28;;
42282;SDS011;28237;47.954;21.730;2023-12-22T06:56:15;1.35;;;0.50;;
42282;SDS011;28237;47.954;21.730;2023-12-22T06:58:40;1.33;;;0.40;;
42282;SDS011;28237;47.954;21.730;2023-12-22T07:01:06;3.08;;;0.40;;
42282;SDS011;28237;47.954;21.730;2023-12-22T07:03:33;1.75;;;0.65;;
42282;SDS011;28237;47.954;21.730;2023-12-22T07:05:58;1.90;;;1.00;;
42282;SDS011;28237;47.954;21.730;2023-12-22T07:08:24;1.10;;;0.57;;
42282;SDS011;28237;47.954;21.730;2023-12-22T07:10:50;0.40;;;0.40;;
42282;SDS011;28237;47.954;21.730;2023-12-22T07:13:15;1.47;;;0.40;;
42282;SDS011;28237;47.954;21.730;2023-12-22T07:15:40;3.30;;;1.40;;
42282;SDS011;28237;47.954;21.730;2023-12-22T07:18:06;5.83;;;0.63;;
42282;SDS011;28237;47.954;21.730;2023-12-22T07:20:31;2.30;;;0.70;;
42282;SDS011;28237;47.954;21.730;2023-12-22T07:23:01;4.53;;;0.50;;
42282;SDS011;28237;47.954;21.730;2023-12-22T07:25:27;3.00;;;0.82;;
42282;SDS011;28237;47.954;21.730;2023-12-22T07:27:52;0.63;;;0.50;;
42282;SDS011;28237;47.954;21.730;2023-12-22T07:30:17;7.80;;;0.70;;
42282;SDS011;28237;47.954;21.730;2023-12-22T07:32:43;2.67;;;0.52;;
42282;SDS011;28237;47.954;21.730;2023-12-22T07:35:09;1.48;;;0.60;;
42282;SDS011;28237;47.954;21.730;2023-12-22T07:37:35;6.97;;;1.05;;
42282;SDS011;28237;47.954;21.730;2023-12-22T07:40:00;1.48;;;0.40;;
42282;SDS011;28237;47.954;21.730;2023-12-22T07:42:25;1.30;;;0.50;;
42282;SDS011;28237;47.954;21.730;2023-12-22T07:44:51;2.33;;;0.88;;
42282;SDS011;28237;47.954;21.730;2023-12-22T07:47:16;2.10;;;0.50;;
42282;SDS011;28237;47.954;21.730;2023-12-22T07:49:41;3.25;;;0.63;;
42282;SDS011;28237;47.954;21.730;2023-12-22T07:52:07;1.40;;;0.47;;
42282;SDS011;28237;47.954;21.730;2023-12-22T07:54:32;2.03;;;0.60;;
42282;SDS011;28237;47.954;21.730;2023-12-22T07:56:58;3.40;;;0.67;;
42282;SDS011;28237;47.954;21.730;2023-12-22T07:59:23;13.50;;;4.78;;
42282;SDS011;28237;47.954;21.730;2023-12-22T08:01:49;12.45;;;7.25;;
42282;SDS011;28237;47.954;21.730;2023-12-22T08:04:14;2.75;;;1.48;;
42282;SDS011;28237;47.954;21.730;2023-12-22T08:06:40;2.07;;;0.60;;
42282;SDS011;28237;47.954;21.730;2023-12-22T08:09:05;1.38;;;0.30;;
42282;SDS011;28237;47.954;21.730;2023-12-22T08:11:31;1.85;;;0.85;;
42282;SDS011;28237;47.954;21.730;2023-12-22T08:13:56;1.25;;;0.50;;
42282;SDS011;28237;47.954;21.730;2023-12-22T08:16:21;3.13;;;0.57;;
42282;SDS011;28237;47.954;21.730;2023-12-22T08:18:46;3.40;;;0.40;;
42282;SDS011;28237;47.954;21.730;2023-12-22T08:21:13;5.20;;;0.73;;
42282;SDS011;28237;47.954;21.730;2023-12-22T08:23:38;0.30;;;0.20;;
42282;SDS011;28237;47.954;21.730;2023-12-22T08:26:03;1.38;;;0.40;;
42282;SDS011;28237;47.954;21.730;2023-12-22T08:28:29;0.93;;;0.52;;
42282;SDS011;28237;47.954;21.730;2023-12-22T08:30:54;4.18;;;1.15;;
42282;SDS011;28237;47.954;21.730;2023-12-22T08:33:19;2.58;;;1.33;;
42282;SDS011;28237;47.954;21.730;2023-12-22T08:35:45;2.53;;;0.45;;
42282;SDS011;28237;47.954;21.730;2023-12-22T08:38:10;2.83;;;0.70;;
42282;SDS011;28237;47.954;21.730;2023-12-22T08:40:38;2.40;;;0.75;;
42282;SDS011;28237;47.954;21.730;2023-12-22T08:43:03;1.40;;;0.40;;
42282;SDS011;28237;47.954;21.730;2023-12-22T08:45:29;3.30;;;0.50;;
42282;SDS011;28237;47.954;21.730;2023-12-22T08:47:55;3.78;;;0.77;;
42282;SDS011;28237;47.954;21.730;2023-12-22T08:50:20;1.23;;;0.47;;
42282;SDS011;28237;47.954;21.730;2023-12-22T08:52:46;2.33;;;0.63;;
42282;SDS011;28237;47.954;21.730;2023-12-22T08:55:11;3.40;;;0.75;;
42282;SDS011;28237;47.954;21.730;2023-12-22T08:57:36;4.50;;;0.57;;
42282;SDS011;28237;47.954;21.730;2023-12-22T09:00:02;2.55;;;0.50;;
42282;SDS011;28237;47.954;21.730;2023-12-22T09:02:28;0.93;;;0.40;;
42282;SDS011;28237;47.954;21.730;2023-12-22T09:04:54;2.17;;;0.90;;
42282;SDS011;28237;47.954;21.730;2023-12-22T09:07:19;1.60;;;0.75;;
42282;SDS011;28237;47.954;21.730;2023-12-22T09:09:45;2.80;;;0.32;;
42282;SDS011;28237;47.954;21.730;2023-12-22T09:12:10;2.13;;;0.77;;
42282;SDS011;28237;47.954;21.730;2023-12-22T09:14:36;0.38;;;0.38;;
42282;SDS011;28237;47.954;21.730;2023-12-22T09:17:01;2.22;;;0.43;;
42282;SDS011;28237;47.954;21.730;2023-12-22T09:19:26;1.58;;;0.47;;
42282;SDS011;28237;47.954;21.730;2023-12-22T09:21:52;1.92;;;0.60;;
42282;SDS011;28237;47.954;21.730;2023-12-22T09:24:17;2.28;;;0.43;;
42282;SDS011;28237;47.954;21.730;2023-12-22T09:26:42;1.57;;;0.60;;
42282;SDS011;28237;47.954;21.730;2023-12-22T09:29:08;1.35;;;0.57;;
42282;SDS011;28237;47.954;21.730;2023-12-22T09:31:33;0.60;;;0.30;;
42282;SDS011;28237;47.954;21.730;2023-12-22T09:33:58;1.40;;;0.50;;
42282;SDS011;28237;47.954;21.730;2023-12-22T09:36:24;1.65;;;0.50;;
42282;SDS011;28237;47.954;21.730;2023-12-22T09:38:49;2.08;;;0.40;;
42282;SDS011;28237;47.954;21.730;2023-12-22T09:41:14;1.80;;;0.68;;
42282;SDS011;28237;47.954;21.730;2023-12-22T09:43:40;2.35;;;0.70;;
42282;SDS011;28237;47.954;21.730;2023-12-22T09:46:07;4.50;;;0.57;;
42282;SDS011;28237;47.954;21.730;2023-12-22T09:48:34;2.55;;;1.35;;
42282;SDS011;28237;47.954;21.730;2023-12-22T09:51:03;3.92;;;0.88;;
42282;SDS011;28237;47.954;21.730;2023-12-22T09:53:29;4.63;;;0.73;;
42282;SDS011;28237;47.954;21.730;2023-12-22T09:55:56;0.60;;;0.30;;
42282;SDS011;28237;47.954;21.730;2023-12-22T09:58:22;6.47;;;0.57;;
42282;SDS011;28237;47.954;21.730;2023-12-22T10:00:48;0.30;;;0.30;;
42282;SDS011;28237;47.954;21.730;2023-12-22T10:03:13;1.83;;;0.47;;
42282;SDS011;28237;47.954;21.730;2023-12-22T10:05:41;0.52;;;0.32;;
42282;SDS011;28237;47.954;21.730;2023-12-22T10:08:06;2.25;;;0.47;;
42282;SDS011;28237;47.954;21.730;2023-12-22T10:10:32;1.88;;;0.90;;
42282;SDS011;28237;47.954;21.730;2023-12-22T10:12:58;0.30;;;0.20;;
42282;SDS011;28237;47.954;21.730;2023-12-22T10:15:24;5.03;;;0.82;;
42282;SDS011;28237;47.954;21.730;2023-12-22T10:17:53;4.93;;;0.43;;
42282;SDS011;28237;47.954;21.730;2023-12-22T10:20:18;1.52;;;0.47;;
42282;SDS011;28237;47.954;21.730;2023-12-22T10:22:46;2.88;;;0.38;;
42282;SDS011;28237;47.954;21.730;2023-12-22T10:25:14;1.05;;;0.30;;
42282;SDS011;28237;47.954;21.730;2023-12-22T10:27:41;1.20;;;0.22;;
42282;SDS011;28237;47.954;21.730;2023-12-22T10:30:07;2.65;;;0.55;;
42282;SDS011;28237;47.954;21.730;2023-12-22T10:32:32;1.80;;;0.25;;
42282;SDS011;28237;47.954;21.730;2023-12-22T10:34:57;3.53;;;0.37;;
42282;SDS011;28237;47.954;21.730;2023-12-22T10:37:23;2.40;;;0.50;;
42282;SDS011;28237;47.954;21.730;2023-12-22T10:39:51;0.95;;;0.40;;
42282;SDS011;28237;47.954;21.730;2023-12-22T10:42:17;6.68;;;0.60;;
42282;SDS011;28237;47.954;21.730;2023-12-22T10:44:42;5.00;;;1.08;;
42282;SDS011;28237;47.954;21.730;2023-12-22T10:47:08;2.15;;;0.60;;
42282;SDS011;28237;47.954;21.730;2023-12-22T10:49:33;4.35;;;0.50;;
42282;SDS011;28237;47.954;21.730;2023-12-22T10:51:59;0.85;;;0.40;;
42282;SDS011;28237;47.954;21.730;2023-12-22T10:54:24;1.23;;;0.43;;
42282;SDS011;28237;47.954;21.730;2023-12-22T10:56:49;3.65;;;0.60;;
42282;SDS011;28237;47.954;21.730;2023-12-22T10:59:18;1.73;;;0.75;;
42282;SDS011;28237;47.954;21.730;2023-12-22T11:01:43;2.10;;;0.22;;
42282;SDS011;28237;47.954;21.730;2023-12-22T11:04:12;1.80;;;0.43;;
42282;SDS011;28237;47.954;21.730;2023-12-22T11:06:38;3.80;;;0.85;;
42282;SDS011;28237;47.954;21.730;2023-12-22T11:09:07;2.55;;;0.30;;
42282;SDS011;28237;47.954;21.730;2023-12-22T11:11:37;0.77;;;0.25;;
42282;SDS011;28237;47.954;21.730;2023-12-22T11:14:03;2.53;;;0.77;;
42282;SDS011;28237;47.954;21.730;2023-12-22T11:16:28;2.25;;;0.90;;
42282;SDS011;28237;47.954;21.730;2023-12-22T11:18:55;1.23;;;0.30;;
42282;SDS011;28237;47.954;21.730;2023-12-22T11:21:21;2.45;;;0.30;;
42282;SDS011;28237;47.954;21.730;2023-12-22T11:23:47;3.17;;;0.52;;
42282;SDS011;28237;47.954;21.730;2023-12-22T11:26:12;1.52;;;0.28;;
42282;SDS011;28237;47.954;21.730;2023-12-22T11:28:39;1.27;;;0.13;;
42282;SDS011;28237;47.954;21.730;2023-12-22T11:31:06;0.55;;;0.20;;
42282;SDS011;28237;47.954;21.730;2023-12-22T11:33:32;3.42;;;0.43;;
42282;SDS011;28237;47.954;21.730;2023-12-22T11:36:00;3.70;;;0.47;;
42282;SDS011;28237;47.954;21.730;2023-12-22T11:38:26;0.73;;;0.30;;
42282;SDS011;28237;47.954;21.730;2023-12-22T11:40:51;4.45;;;1.23;;
42282;SDS011;28237;47.954;21.730;2023-12-22T11:43:17;0.52;;;0.47;;
42282;SDS011;28237;47.954;21.730;2023-12-22T11:45:43;2.00;;;0.30;;
42282;SDS011;28237;47.954;21.730;2023-12-22T11:48:09;5.50;;;0.77;;
42282;SDS011;28237;47.954;21.730;2023-12-22T11:50:35;5.95;;;0.30;;
42282;SDS011;28237;47.954;21.730;2023-12-22T11:53:19;1.77;;;0.25;;
42282;SDS011;28237;47.954;21.730;2023-12-22T11:58:44;1.95;;;0.40;;
42282;SDS011;28237;47.954;21.730;2023-12-22T12:01:17;0.55;;;0.55;;
42282;SDS011;28237;47.954;21.730;2023-12-22T12:08:51;1.90;;;0.50;;
42282;SDS011;28237;47.954;21.730;2023-12-22T12:11:18;1.98;;;0.40;;
42282;SDS011;28237;47.954;21.730;2023-12-22T12:13:45;3.75;;;0.47;;
42282;SDS011;28237;47.954;21.730;2023-12-22T12:16:12;2.17;;;0.47;;
42282;SDS011;28237;47.954;21.730;2023-12-22T12:18:47;3.80;;;0.30;;
42282;SDS011;28237;47.954;21.730;2023-12-22T12:21:12;4.15;;;0.38;;
42282;SDS011;28237;47.954;21.730;2023-12-22T12:23:38;4.72;;;0.93;;
42282;SDS011;28237;47.954;21.730;2023-12-22T12:26:06;3.13;;;0.50;;
42282;SDS011;28237;47.954;21.730;2023-12-22T12:28:32;4.57;;;0.80;;
42282;SDS011;28237;47.954;21.730;2023-12-22T12:30:58;3.35;;;0.52;;
42282;SDS011;28237;47.954;21.730;2023-12-22T12:33:27;1.40;;;0.40;;
42282;SDS011;28237;47.954;21.730;2023-12-22T12:35:56;5.35;;;0.50;;
42282;SDS011;28237;47.954;21.730;2023-12-22T12:38:23;1.85;;;0.38;;
42282;SDS011;28237;47.954;21.730;2023-12-22T12:40:50;5.00;;;0.40;;
42282;SDS011;28237;47.954;21.730;2023-12-22T12:43:15;6.05;;;0.55;;
42282;SDS011;28237;47.954;21.730;2023-12-22T12:45:41;4.43;;;0.60;;
42282;SDS011;28237;47.954;21.730;2023-12-22T12:48:07;4.22;;;0.90;;
42282;SDS011;28237;47.954;21.730;2023-12-22T12:50:32;4.57;;;1.00;;
42282;SDS011;28237;47.954;21.730;2023-12-22T12:52:57;4.82;;;0.60;;
42282;SDS011;28237;47.954;21.730;2023-12-22T12:55:23;3.72;;;0.80;;
42282;SDS011;28237;47.954;21.730;2023-12-22T12:57:52;1.92;;;1.00;;
42282;SDS011;28237;47.954;21.730;2023-12-22T13:02:49;6.85;;;1.50;;
42282;SDS011;28237;47.954;21.730;2023-12-22T13:05:23;5.15;;;0.50;;
42282;SDS011;28237;47.954;21.730;2023-12-22T13:07:49;2.80;;;0.30;;
42282;SDS011;28237;47.954;21.730;2023-12-22T13:10:24;1.60;;;0.63;;
42282;SDS011;28237;47.954;21.730;2023-12-22T13:12:52;0.98;;;0.43;;
42282;SDS011;28237;47.954;21.730;2023-12-22T13:15:19;1.75;;;0.40;;
42282;SDS011;28237;47.954;21.730;2023-12-22T13:17:45;2.50;;;0.22;;
42282;SDS011;28237;47.954;21.730;2023-12-22T13:20:11;1.27;;;0.40;;
42282;SDS011;28237;47.954;21.730;2023-12-22T13:22:36;4.82;;;0.43;;
42282;SDS011;28237;47.954;21.730;2023-12-22T13:25:02;1.17;;;0.20;;
42282;SDS011;28237;47.954;21.730;2023-12-22T13:27:27;1.90;;;0.82;;
42282;SDS011;28237;47.954;21.730;2023-12-22T13:29:53;6.13;;;0.30;;
42282;SDS011;28237;47.954;21.730;2023-12-22T13:32:19;0.55;;;0.20;;
42282;SDS011;28237;47.954;21.730;2023-12-22T13:34:51;1.00;;;0.32;;
42282;SDS011;28237;47.954;21.730;2023-12-22T13:37:17;0.30;;;0.20;;
42282;SDS011;28237;47.954;21.730;2023-12-22T13:39:42;1.70;;;0.30;;
42282;SDS011;28237;47.954;21.730;2023-12-22T13:42:14;2.38;;;0.30;;
42282;SDS011;28237;47.954;21.730;2023-12-22T13:44:44;3.20;;;0.45;;
42282;SDS011;28237;47.954;21.730;2023-12-22T13:47:09;3.35;;;0.22;;
42282;SDS011;28237;47.954;21.730;2023-12-22T13:49:35;1.27;;;0.20;;
42282;SDS011;28237;47.954;21.730;2023-12-22T13:52:00;1.92;;;0.20;;
42282;SDS011;28237;47.954;21.730;2023-12-22T13:54:32;3.65;;;0.50;;
42282;SDS011;28237;47.954;21.730;2023-12-22T13:56:58;3.45;;;0.82;;
42282;SDS011;28237;47.954;21.730;2023-12-22T13:59:41;2.33;;;1.07;;
42282;SDS011;28237;47.954;21.730;2023-12-22T14:02:07;2.63;;;0.50;;
42282;SDS011;28237;47.954;21.730;2023-12-22T14:04:32;5.43;;;0.60;;
42282;SDS011;28237;47.954;21.730;2023-12-22T14:06:57;1.48;;;0.70;;
42282;SDS011;28237;47.954;21.730;2023-12-22T14:09:22;2.53;;;0.50;;
42282;SDS011;28237;47.954;21.730;2023-12-22T14:11:49;4.88;;;0.68;;
42282;SDS011;28237;47.954;21.730;2023-12-22T14:14:15;1.75;;;0.28;;
42282;SDS011;28237;47.954;21.730;2023-12-22T14:16:41;2.00;;;0.50;;
42282;SDS011;28237;47.954;21.730;2023-12-22T14:19:07;0.40;;;0.40;;
42282;SDS011;28237;47.954;21.730;2023-12-22T14:21:32;1.08;;;0.20;;
42282;SDS011;28237;47.954;21.730;2023-12-22T14:23:58;0.40;;;0.20;;
42282;SDS011;28237;47.954;21.730;2023-12-22T14:26:23;0.80;;;0.38;;
42282;SDS011;28237;47.954;21.730;2023-12-22T14:28:48;0.10;;;0.10;;
42282;SDS011;28237;47.954;21.730;2023-12-22T14:31:16;1.15;;;0.40;;
42282;SDS011;28237;47.954;21.730;2023-12-22T14:33:41;0.73;;;0.30;;
42282;SDS011;28237;47.954;21.730;2023-12-22T14:36:06;1.07;;;0.50;;